sensor_id;sensor_type;location;lat;lon;timestamp;temperature;humidity
12276;DHT22;6200;48.144;11.424;2022-10-22T00:00:13;14.10;99.90
12276;DHT22;6200;48.144;11.424;2022-10-22T00:02:40;14.10;99.90
12276;DHT22;6200;48.144;11.424;2022-10-22T00:05:06;14.10;99.90
12276;DHT22;6200;48.144;11.424;2022-10-22T00:07:32;14.10;99.90
12276;DHT22;6200;48.144;11.424;2022-10-22T00:09:58;14.10;99.90
12276;DHT22;6200;48.144;11.424;2022-10-22T00:12:24;14.10;99.90
12276;DHT22;6200;48.144;11.424;2022-10-22T00:14:49;14.10;99.90
12276;DHT22;6200;48.144;11.424;2022-10-22T00:17:16;14.10;99.90
12276;DHT22;6200;48.144;11.424;2022-10-22T00:19:41;14.10;99.90
12276;DHT22;6200;48.144;11.424;2022-10-22T00:22:08;14.10;99.90
12276;DHT22;6200;48.144;11.424;2022-10-22T00:24:35;14.10;99.90
12276;DHT22;6200;48.144;11.424;2022-10-22T00:27:01;14.10;99.90
12276;DHT22;6200;48.144;11.424;2022-10-22T00:29:27;14.10;99.90
12276;DHT22;6200;48.144;11.424;2022-10-22T00:31:52;14.10;99.90
12276;DHT22;6200;48.144;11.424;2022-10-22T00:34:19;14.10;99.90
12276;DHT22;6200;48.144;11.424;2022-10-22T00:36:46;14.10;99.90
12276;DHT22;6200;48.144;11.424;2022-10-22T00:39:14;14.10;99.90
12276;DHT22;6200;48.144;11.424;2022-10-22T00:41:45;14.10;99.90
12276;DHT22;6200;48.144;11.424;2022-10-22T00:47:15;14.10;99.90
12276;DHT22;6200;48.144;11.424;2022-10-22T00:49:42;14.10;99.90
12276;DHT22;6200;48.144;11.424;2022-10-22T00:52:08;14.10;99.90
12276;DHT22;6200;48.144;11.424;2022-10-22T00:54:34;14.10;99.90
12276;DHT22;6200;48.144;11.424;2022-10-22T00:57:00;14.00;99.90
12276;DHT22;6200;48.144;11.424;2022-10-22T00:59:27;14.00;99.90
12276;DHT22;6200;48.144;11.424;2022-10-22T01:01:52;14.00;99.90
12276;DHT22;6200;48.144;11.424;2022-10-22T01:04:19;14.00;99.90
12276;DHT22;6200;48.144;11.424;2022-10-22T01:06:45;14.00;99.90
12276;DHT22;6200;48.144;11.424;2022-10-22T01:09:41;14.00;99.90
12276;DHT22;6200;48.144;11.424;2022-10-22T01:15:17;14.00;99.90
12276;DHT22;6200;48.144;11.424;2022-10-22T01:18:01;14.00;99.90
12276;DHT22;6200;48.144;11.424;2022-10-22T01:20:47;14.00;99.90
12276;DHT22;6200;48.144;11.424;2022-10-22T01:26:27;14.00;99.90
12276;DHT22;6200;48.144;11.424;2022-10-22T01:31:38;13.90;99.90
12276;DHT22;6200;48.144;11.424;2022-10-22T01:34:07;13.90;99.90
12276;DHT22;6200;48.144;11.424;2022-10-22T01:36:34;13.90;99.90
12276;DHT22;6200;48.144;11.424;2022-10-22T01:39:02;13.90;99.90
12276;DHT22;6200;48.144;11.424;2022-10-22T01:41:29;13.90;99.90
12276;DHT22;6200;48.144;11.424;2022-10-22T01:43:55;13.90;99.90
12276;DHT22;6200;48.144;11.424;2022-10-22T01:46:23;13.90;99.90
12276;DHT22;6200;48.144;11.424;2022-10-22T01:52:26;13.90;99.90
12276;DHT22;6200;48.144;11.424;2022-10-22T02:00:12;13.80;99.90
12276;DHT22;6200;48.144;11.424;2022-10-22T02:02:58;13.80;99.90
12276;DHT22;6200;48.144;11.424;2022-10-22T02:05:34;13.80;99.90
12276;DHT22;6200;48.144;11.424;2022-10-22T02:08:12;13.80;99.90
12276;DHT22;6200;48.144;11.424;2022-10-22T02:10:41;13.80;99.90
12276;DHT22;6200;48.144;11.424;2022-10-22T02:13:12;13.80;99.90
12276;DHT22;6200;48.144;11.424;2022-10-22T02:15:39;13.80;99.90
12276;DHT22;6200;48.144;11.424;2022-10-22T02:18:07;13.80;99.90
12276;DHT22;6200;48.144;11.424;2022-10-22T02:20:36;13.80;99.90
12276;DHT22;6200;48.144;11.424;2022-10-22T02:23:03;13.80;99.90
12276;DHT22;6200;48.144;11.424;2022-10-22T02:25:35;13.80;99.90
12276;DHT22;6200;48.144;11.424;2022-10-22T02:28:15;13.80;99.90
12276;DHT22;6200;48.144;11.424;2022-10-22T02:30:47;13.80;99.90
12276;DHT22;6200;48.144;11.424;2022-10-22T02:33:21;13.80;99.90
12276;DHT22;6200;48.144;11.424;2022-10-22T02:35:48;13.80;99.90
12276;DHT22;6200;48.144;11.424;2022-10-22T02:38:16;13.80;99.90
12276;DHT22;6200;48.144;11.424;2022-10-22T02:40:42;13.80;99.90
12276;DHT22;6200;48.144;11.424;2022-10-22T02:43:08;13.80;99.90
12276;DHT22;6200;48.144;11.424;2022-10-22T02:45:34;13.80;99.90
12276;DHT22;6200;48.144;11.424;2022-10-22T02:47:59;13.80;99.90
12276;DHT22;6200;48.144;11.424;2022-10-22T02:50:25;13.80;99.90
12276;DHT22;6200;48.144;11.424;2022-10-22T02:52:51;13.80;99.90
12276;DHT22;6200;48.144;11.424;2022-10-22T02:55:16;13.80;99.90
12276;DHT22;6200;48.144;11.424;2022-10-22T02:57:42;13.80;99.90
12276;DHT22;6200;48.144;11.424;2022-10-22T03:00:09;13.80;99.90
12276;DHT22;6200;48.144;11.424;2022-10-22T03:02:35;13.80;99.90
12276;DHT22;6200;48.144;11.424;2022-10-22T03:05:00;13.70;99.90
12276;DHT22;6200;48.144;11.424;2022-10-22T03:07:26;13.70;99.90
12276;DHT22;6200;48.144;11.424;2022-10-22T03:09:52;13.70;99.90
12276;DHT22;6200;48.144;11.424;2022-10-22T03:12:17;13.70;99.90
12276;DHT22;6200;48.144;11.424;2022-10-22T03:14:43;13.70;99.90
12276;DHT22;6200;48.144;11.424;2022-10-22T03:17:08;13.60;99.90
12276;DHT22;6200;48.144;11.424;2022-10-22T03:19:34;13.50;99.90
12276;DHT22;6200;48.144;11.424;2022-10-22T03:22:02;13.60;99.90
12276;DHT22;6200;48.144;11.424;2022-10-22T03:24:34;13.50;99.90
12276;DHT22;6200;48.144;11.424;2022-10-22T03:27:00;13.60;99.90
12276;DHT22;6200;48.144;11.424;2022-10-22T03:29:26;13.40;99.90
12276;DHT22;6200;48.144;11.424;2022-10-22T03:31:52;13.40;99.90
12276;DHT22;6200;48.144;11.424;2022-10-22T03:34:19;13.40;99.90
12276;DHT22;6200;48.144;11.424;2022-10-22T03:36:44;13.30;99.90
12276;DHT22;6200;48.144;11.424;2022-10-22T03:39:15;13.20;99.90
12276;DHT22;6200;48.144;11.424;2022-10-22T03:41:42;13.30;99.90
12276;DHT22;6200;48.144;11.424;2022-10-22T03:44:08;13.30;99.90
12276;DHT22;6200;48.144;11.424;2022-10-22T03:46:34;13.20;99.90
12276;DHT22;6200;48.144;11.424;2022-10-22T03:49:00;13.20;99.90
12276;DHT22;6200;48.144;11.424;2022-10-22T03:51:26;13.10;99.90
12276;DHT22;6200;48.144;11.424;2022-10-22T03:53:53;13.10;99.90
12276;DHT22;6200;48.144;11.424;2022-10-22T03:56:18;13.10;99.90
12276;DHT22;6200;48.144;11.424;2022-10-22T03:58:44;12.00;99.90
12276;DHT22;6200;48.144;11.424;2022-10-22T04:01:11;13.00;99.90
12276;DHT22;6200;48.144;11.424;2022-10-22T04:03:38;13.00;99.90
12276;DHT22;6200;48.144;11.424;2022-10-22T04:06:09;11.80;99.90
12276;DHT22;6200;48.144;11.424;2022-10-22T04:08:35;13.00;99.90
12276;DHT22;6200;48.144;11.424;2022-10-22T04:11:01;13.00;99.90
12276;DHT22;6200;48.144;11.424;2022-10-22T04:13:27;12.90;99.90
12276;DHT22;6200;48.144;11.424;2022-10-22T04:15:53;13.00;99.90
12276;DHT22;6200;48.144;11.424;2022-10-22T04:18:19;13.00;99.90
12276;DHT22;6200;48.144;11.424;2022-10-22T04:20:45;13.00;99.90
12276;DHT22;6200;48.144;11.424;2022-10-22T04:23:11;12.90;99.90
12276;DHT22;6200;48.144;11.424;2022-10-22T04:25:37;12.90;99.90
12276;DHT22;6200;48.144;11.424;2022-10-22T04:28:05;12.90;99.90
12276;DHT22;6200;48.144;11.424;2022-10-22T04:30:31;12.90;99.90
12276;DHT22;6200;48.144;11.424;2022-10-22T04:32:56;12.90;99.90
12276;DHT22;6200;48.144;11.424;2022-10-22T04:35:22;12.90;99.90
12276;DHT22;6200;48.144;11.424;2022-10-22T04:37:48;12.80;99.90
12276;DHT22;6200;48.144;11.424;2022-10-22T04:40:13;12.90;99.90
12276;DHT22;6200;48.144;11.424;2022-10-22T04:42:39;12.80;99.90
12276;DHT22;6200;48.144;11.424;2022-10-22T04:45:04;12.80;99.90
12276;DHT22;6200;48.144;11.424;2022-10-22T04:47:30;12.80;99.90
12276;DHT22;6200;48.144;11.424;2022-10-22T04:49:56;12.70;99.90
12276;DHT22;6200;48.144;11.424;2022-10-22T04:52:21;12.70;99.90
12276;DHT22;6200;48.144;11.424;2022-10-22T04:54:47;12.70;99.90
12276;DHT22;6200;48.144;11.424;2022-10-22T04:57:12;12.70;99.90
12276;DHT22;6200;48.144;11.424;2022-10-22T04:59:39;12.70;99.90
12276;DHT22;6200;48.144;11.424;2022-10-22T05:02:04;12.60;99.90
12276;DHT22;6200;48.144;11.424;2022-10-22T05:04:30;12.60;99.90
12276;DHT22;6200;48.144;11.424;2022-10-22T05:06:56;12.60;99.90
12276;DHT22;6200;48.144;11.424;2022-10-22T05:09:21;12.60;99.90
12276;DHT22;6200;48.144;11.424;2022-10-22T05:11:49;12.60;99.90
12276;DHT22;6200;48.144;11.424;2022-10-22T05:14:20;12.50;99.90
12276;DHT22;6200;48.144;11.424;2022-10-22T05:16:47;12.50;99.90
12276;DHT22;6200;48.144;11.424;2022-10-22T05:19:31;12.50;99.90
12276;DHT22;6200;48.144;11.424;2022-10-22T05:21:59;12.50;99.90
12276;DHT22;6200;48.144;11.424;2022-10-22T05:24:26;12.50;99.90
12276;DHT22;6200;48.144;11.424;2022-10-22T05:26:54;12.50;99.90
12276;DHT22;6200;48.144;11.424;2022-10-22T05:29:20;12.50;99.90
12276;DHT22;6200;48.144;11.424;2022-10-22T05:31:46;12.40;99.90
12276;DHT22;6200;48.144;11.424;2022-10-22T05:34:12;12.50;99.90
12276;DHT22;6200;48.144;11.424;2022-10-22T05:36:37;12.40;99.90
12276;DHT22;6200;48.144;11.424;2022-10-22T05:39:04;12.50;99.90
12276;DHT22;6200;48.144;11.424;2022-10-22T05:41:30;12.50;99.90
12276;DHT22;6200;48.144;11.424;2022-10-22T05:43:58;12.40;99.90
12276;DHT22;6200;48.144;11.424;2022-10-22T05:46:26;12.50;99.90
12276;DHT22;6200;48.144;11.424;2022-10-22T05:48:58;12.50;99.90
12276;DHT22;6200;48.144;11.424;2022-10-22T05:51:28;12.50;99.90
12276;DHT22;6200;48.144;11.424;2022-10-22T05:53:56;12.50;99.90
12276;DHT22;6200;48.144;11.424;2022-10-22T05:56:22;12.50;99.90
12276;DHT22;6200;48.144;11.424;2022-10-22T05:58:48;12.60;99.90
12276;DHT22;6200;48.144;11.424;2022-10-22T06:01:26;12.60;99.90
12276;DHT22;6200;48.144;11.424;2022-10-22T06:03:53;12.60;99.90
12276;DHT22;6200;48.144;11.424;2022-10-22T06:08:51;12.60;99.90
12276;DHT22;6200;48.144;11.424;2022-10-22T06:11:19;12.60;99.90
12276;DHT22;6200;48.144;11.424;2022-10-22T06:13:45;12.70;99.90
12276;DHT22;6200;48.144;11.424;2022-10-22T06:16:11;13.50;99.90
12276;DHT22;6200;48.144;11.424;2022-10-22T06:18:36;12.70;99.90
12276;DHT22;6200;48.144;11.424;2022-10-22T06:21:20;12.70;99.90
12276;DHT22;6200;48.144;11.424;2022-10-22T06:23:46;12.70;99.90
12276;DHT22;6200;48.144;11.424;2022-10-22T06:26:11;12.70;99.90
12276;DHT22;6200;48.144;11.424;2022-10-22T06:28:38;12.70;99.90
12276;DHT22;6200;48.144;11.424;2022-10-22T06:31:04;12.70;99.90
12276;DHT22;6200;48.144;11.424;2022-10-22T06:33:31;12.70;99.90
12276;DHT22;6200;48.144;11.424;2022-10-22T06:36:12;12.70;99.90
12276;DHT22;6200;48.144;11.424;2022-10-22T06:38:38;13.80;99.90
12276;DHT22;6200;48.144;11.424;2022-10-22T06:41:09;12.70;99.90
12276;DHT22;6200;48.144;11.424;2022-10-22T06:43:35;12.80;99.90
12276;DHT22;6200;48.144;11.424;2022-10-22T06:46:03;12.70;99.90
12276;DHT22;6200;48.144;11.424;2022-10-22T06:48:29;12.80;99.90
12276;DHT22;6200;48.144;11.424;2022-10-22T06:50:55;12.80;99.90
12276;DHT22;6200;48.144;11.424;2022-10-22T06:53:21;12.80;99.90
12276;DHT22;6200;48.144;11.424;2022-10-22T06:55:46;12.80;99.90
12276;DHT22;6200;48.144;11.424;2022-10-22T06:58:12;12.80;99.90
12276;DHT22;6200;48.144;11.424;2022-10-22T07:00:37;12.90;99.90
12276;DHT22;6200;48.144;11.424;2022-10-22T07:03:03;12.90;99.90
12276;DHT22;6200;48.144;11.424;2022-10-22T07:05:28;12.90;99.90
12276;DHT22;6200;48.144;11.424;2022-10-22T07:07:54;12.90;99.90
12276;DHT22;6200;48.144;11.424;2022-10-22T07:10:19;12.90;99.90
12276;DHT22;6200;48.144;11.424;2022-10-22T07:12:45;13.00;99.90
12276;DHT22;6200;48.144;11.424;2022-10-22T07:15:10;13.00;99.90
12276;DHT22;6200;48.144;11.424;2022-10-22T07:17:36;13.00;99.90
12276;DHT22;6200;48.144;11.424;2022-10-22T07:20:02;13.00;99.90
12276;DHT22;6200;48.144;11.424;2022-10-22T07:22:28;13.10;99.90
12276;DHT22;6200;48.144;11.424;2022-10-22T07:24:53;13.10;99.90
12276;DHT22;6200;48.144;11.424;2022-10-22T07:27:19;13.10;99.90
12276;DHT22;6200;48.144;11.424;2022-10-22T07:29:44;13.10;99.90
12276;DHT22;6200;48.144;11.424;2022-10-22T07:32:10;13.10;99.90
12276;DHT22;6200;48.144;11.424;2022-10-22T07:34:36;13.20;99.90
12276;DHT22;6200;48.144;11.424;2022-10-22T07:37:01;13.20;99.90
12276;DHT22;6200;48.144;11.424;2022-10-22T07:39:27;13.20;99.90
12276;DHT22;6200;48.144;11.424;2022-10-22T07:41:53;13.30;99.90
12276;DHT22;6200;48.144;11.424;2022-10-22T07:44:18;13.30;99.90
12276;DHT22;6200;48.144;11.424;2022-10-22T07:46:44;13.30;99.90
12276;DHT22;6200;48.144;11.424;2022-10-22T07:49:09;13.40;99.90
12276;DHT22;6200;48.144;11.424;2022-10-22T07:51:35;13.40;99.90
12276;DHT22;6200;48.144;11.424;2022-10-22T07:54:00;13.50;99.90
12276;DHT22;6200;48.144;11.424;2022-10-22T07:56:26;13.50;99.90
12276;DHT22;6200;48.144;11.424;2022-10-22T07:58:51;13.60;99.90
12276;DHT22;6200;48.144;11.424;2022-10-22T08:01:17;13.70;99.90
12276;DHT22;6200;48.144;11.424;2022-10-22T08:03:43;13.70;99.90
12276;DHT22;6200;48.144;11.424;2022-10-22T08:06:11;13.70;99.90
12276;DHT22;6200;48.144;11.424;2022-10-22T08:08:37;13.70;99.90
12276;DHT22;6200;48.144;11.424;2022-10-22T08:11:03;13.70;99.90
12276;DHT22;6200;48.144;11.424;2022-10-22T08:13:29;13.80;99.90
12276;DHT22;6200;48.144;11.424;2022-10-22T08:15:56;13.80;99.90
12276;DHT22;6200;48.144;11.424;2022-10-22T08:18:22;13.80;99.90
12276;DHT22;6200;48.144;11.424;2022-10-22T08:20:48;13.90;99.90
12276;DHT22;6200;48.144;11.424;2022-10-22T08:23:13;13.90;99.90
12276;DHT22;6200;48.144;11.424;2022-10-22T08:25:39;13.90;99.90
12276;DHT22;6200;48.144;11.424;2022-10-22T08:28:04;13.90;99.90
12276;DHT22;6200;48.144;11.424;2022-10-22T08:30:30;13.90;99.90
12276;DHT22;6200;48.144;11.424;2022-10-22T08:32:58;13.90;99.90
12276;DHT22;6200;48.144;11.424;2022-10-22T08:35:23;13.90;99.90
12276;DHT22;6200;48.144;11.424;2022-10-22T08:37:49;13.90;99.90
12276;DHT22;6200;48.144;11.424;2022-10-22T08:40:23;14.00;99.90
12276;DHT22;6200;48.144;11.424;2022-10-22T08:45:56;14.00;99.90
12276;DHT22;6200;48.144;11.424;2022-10-22T08:48:44;14.10;99.90
12276;DHT22;6200;48.144;11.424;2022-10-22T08:51:17;14.10;99.90
12276;DHT22;6200;48.144;11.424;2022-10-22T08:56:22;14.10;99.90
12276;DHT22;6200;48.144;11.424;2022-10-22T08:58:56;14.20;99.90
12276;DHT22;6200;48.144;11.424;2022-10-22T09:01:34;14.30;99.90
12276;DHT22;6200;48.144;11.424;2022-10-22T09:04:23;14.30;99.90
12276;DHT22;6200;48.144;11.424;2022-10-22T09:06:55;14.40;99.90
12276;DHT22;6200;48.144;11.424;2022-10-22T09:09:24;14.40;99.90
12276;DHT22;6200;48.144;11.424;2022-10-22T09:11:52;14.50;99.90
12276;DHT22;6200;48.144;11.424;2022-10-22T09:14:21;14.60;99.90
12276;DHT22;6200;48.144;11.424;2022-10-22T09:19:59;14.70;99.90
12276;DHT22;6200;48.144;11.424;2022-10-22T09:22:47;14.60;99.90
12276;DHT22;6200;48.144;11.424;2022-10-22T09:25:24;14.70;99.90
12276;DHT22;6200;48.144;11.424;2022-10-22T09:27:50;14.80;99.90
12276;DHT22;6200;48.144;11.424;2022-10-22T09:30:43;14.80;99.90
12276;DHT22;6200;48.144;11.424;2022-10-22T09:38:14;14.90;99.90
12276;DHT22;6200;48.144;11.424;2022-10-22T09:40:49;15.00;99.90
12276;DHT22;6200;48.144;11.424;2022-10-22T09:43:15;15.00;99.90
12276;DHT22;6200;48.144;11.424;2022-10-22T09:45:42;15.00;99.90
12276;DHT22;6200;48.144;11.424;2022-10-22T09:48:10;15.00;99.90
12276;DHT22;6200;48.144;11.424;2022-10-22T09:50:47;15.00;99.90
12276;DHT22;6200;48.144;11.424;2022-10-22T09:53:25;15.00;99.90
12276;DHT22;6200;48.144;11.424;2022-10-22T09:55:57;15.10;99.90
12276;DHT22;6200;48.144;11.424;2022-10-22T09:58:25;15.10;99.90
12276;DHT22;6200;48.144;11.424;2022-10-22T10:00:56;15.10;99.90
12276;DHT22;6200;48.144;11.424;2022-10-22T10:03:25;15.10;99.90
12276;DHT22;6200;48.144;11.424;2022-10-22T10:05:53;15.10;99.90
12276;DHT22;6200;48.144;11.424;2022-10-22T10:08:20;15.20;99.90
12276;DHT22;6200;48.144;11.424;2022-10-22T10:10:55;15.20;99.90
12276;DHT22;6200;48.144;11.424;2022-10-22T10:13:36;15.30;99.90
12276;DHT22;6200;48.144;11.424;2022-10-22T10:19:12;15.50;99.90
12276;DHT22;6200;48.144;11.424;2022-10-22T10:26:54;16.10;99.90
12276;DHT22;6200;48.144;11.424;2022-10-22T10:32:26;16.40;99.90
12276;DHT22;6200;48.144;11.424;2022-10-22T10:35:20;16.60;99.90
12276;DHT22;6200;48.144;11.424;2022-10-22T10:40:49;16.90;99.90
12276;DHT22;6200;48.144;11.424;2022-10-22T10:43:41;17.20;99.90
12276;DHT22;6200;48.144;11.424;2022-10-22T10:49:19;17.60;99.90
12276;DHT22;6200;48.144;11.424;2022-10-22T10:54:50;17.50;99.90
12276;DHT22;6200;48.144;11.424;2022-10-22T10:57:24;17.50;99.90
12276;DHT22;6200;48.144;11.424;2022-10-22T11:00:02;17.60;99.90
12276;DHT22;6200;48.144;11.424;2022-10-22T11:08:09;18.10;99.90
12276;DHT22;6200;48.144;11.424;2022-10-22T11:10:39;18.40;99.90
12276;DHT22;6200;48.144;11.424;2022-10-22T11:13:40;18.70;99.90
12276;DHT22;6200;48.144;11.424;2022-10-22T11:18:56;19.40;99.90
12276;DHT22;6200;48.144;11.424;2022-10-22T11:21:35;19.80;99.90
12276;DHT22;6200;48.144;11.424;2022-10-22T11:29:24;20.60;99.90
12276;DHT22;6200;48.144;11.424;2022-10-22T11:31:51;20.50;99.90
12276;DHT22;6200;48.144;11.424;2022-10-22T11:34:26;20.60;99.90
12276;DHT22;6200;48.144;11.424;2022-10-22T11:36:53;20.60;99.90
12276;DHT22;6200;48.144;11.424;2022-10-22T11:39:48;20.40;99.90
12276;DHT22;6200;48.144;11.424;2022-10-22T11:42:36;20.40;99.90
12276;DHT22;6200;48.144;11.424;2022-10-22T11:45:26;20.30;99.90
12276;DHT22;6200;48.144;11.424;2022-10-22T11:48:15;20.40;99.90
12276;DHT22;6200;48.144;11.424;2022-10-22T11:51:03;20.50;99.90
12276;DHT22;6200;48.144;11.424;2022-10-22T11:53:32;20.70;99.90
12276;DHT22;6200;48.144;11.424;2022-10-22T12:11:23;20.00;99.90
12276;DHT22;6200;48.144;11.424;2022-10-22T12:13:52;19.60;99.90
12276;DHT22;6200;48.144;11.424;2022-10-22T12:16:24;19.50;99.90
12276;DHT22;6200;48.144;11.424;2022-10-22T12:18:56;19.20;99.90
12276;DHT22;6200;48.144;11.424;2022-10-22T12:21:25;19.20;99.90
12276;DHT22;6200;48.144;11.424;2022-10-22T12:23:51;19.30;99.90
12276;DHT22;6200;48.144;11.424;2022-10-22T12:26:28;19.30;99.90
12276;DHT22;6200;48.144;11.424;2022-10-22T12:28:58;19.40;99.90
12276;DHT22;6200;48.144;11.424;2022-10-22T12:31:24;19.50;99.90
12276;DHT22;6200;48.144;11.424;2022-10-22T12:33:57;19.50;99.90
12276;DHT22;6200;48.144;11.424;2022-10-22T12:36:25;19.40;99.90
12276;DHT22;6200;48.144;11.424;2022-10-22T12:38:51;19.40;99.90
12276;DHT22;6200;48.144;11.424;2022-10-22T12:41:16;19.40;99.90
12276;DHT22;6200;48.144;11.424;2022-10-22T12:43:42;19.40;99.90
12276;DHT22;6200;48.144;11.424;2022-10-22T12:46:13;19.40;99.90
12276;DHT22;6200;48.144;11.424;2022-10-22T12:48:42;19.30;99.90
12276;DHT22;6200;48.144;11.424;2022-10-22T12:51:13;19.30;99.90
12276;DHT22;6200;48.144;11.424;2022-10-22T12:53:49;19.40;99.90
12276;DHT22;6200;48.144;11.424;2022-10-22T12:56:27;19.50;99.90
12276;DHT22;6200;48.144;11.424;2022-10-22T13:01:47;19.60;99.90
12276;DHT22;6200;48.144;11.424;2022-10-22T13:12:08;19.60;99.90
12276;DHT22;6200;48.144;11.424;2022-10-22T13:14:39;19.60;99.90
12276;DHT22;6200;48.144;11.424;2022-10-22T13:17:14;19.60;99.90
12276;DHT22;6200;48.144;11.424;2022-10-22T13:22:38;19.50;99.90
12276;DHT22;6200;48.144;11.424;2022-10-22T13:30:22;19.40;99.90
12276;DHT22;6200;48.144;11.424;2022-10-22T13:32:55;19.40;99.90
12276;DHT22;6200;48.144;11.424;2022-10-22T13:35:24;19.50;99.90
12276;DHT22;6200;48.144;11.424;2022-10-22T13:37:51;19.40;99.90
12276;DHT22;6200;48.144;11.424;2022-10-22T13:40:16;19.50;99.90
12276;DHT22;6200;48.144;11.424;2022-10-22T13:42:42;19.50;99.90
12276;DHT22;6200;48.144;11.424;2022-10-22T13:45:08;19.40;99.90
12276;DHT22;6200;48.144;11.424;2022-10-22T13:47:33;19.50;99.90
12276;DHT22;6200;48.144;11.424;2022-10-22T13:50:03;19.40;99.90
12276;DHT22;6200;48.144;11.424;2022-10-22T13:52:34;19.40;99.90
12276;DHT22;6200;48.144;11.424;2022-10-22T13:55:01;19.40;99.90
12276;DHT22;6200;48.144;11.424;2022-10-22T13:57:27;19.40;99.90
12276;DHT22;6200;48.144;11.424;2022-10-22T13:59:52;19.40;99.90
12276;DHT22;6200;48.144;11.424;2022-10-22T14:02:18;19.40;99.90
12276;DHT22;6200;48.144;11.424;2022-10-22T14:04:45;19.40;99.90
12276;DHT22;6200;48.144;11.424;2022-10-22T14:07:15;19.40;99.90
12276;DHT22;6200;48.144;11.424;2022-10-22T14:09:41;19.40;99.90
12276;DHT22;6200;48.144;11.424;2022-10-22T14:12:15;19.40;99.90
12276;DHT22;6200;48.144;11.424;2022-10-22T14:14:41;19.40;99.90
12276;DHT22;6200;48.144;11.424;2022-10-22T14:17:13;19.40;99.90
12276;DHT22;6200;48.144;11.424;2022-10-22T14:19:42;19.40;99.90
12276;DHT22;6200;48.144;11.424;2022-10-22T14:22:18;19.30;99.90
12276;DHT22;6200;48.144;11.424;2022-10-22T14:24:45;19.40;99.90
12276;DHT22;6200;48.144;11.424;2022-10-22T14:27:12;19.30;99.90
12276;DHT22;6200;48.144;11.424;2022-10-22T14:29:39;19.30;99.90
12276;DHT22;6200;48.144;11.424;2022-10-22T14:32:16;19.20;99.90
12276;DHT22;6200;48.144;11.424;2022-10-22T14:34:44;19.20;99.90
12276;DHT22;6200;48.144;11.424;2022-10-22T14:37:18;19.10;99.90
12276;DHT22;6200;48.144;11.424;2022-10-22T14:39:45;19.20;99.90
12276;DHT22;6200;48.144;11.424;2022-10-22T14:42:16;19.20;99.90
12276;DHT22;6200;48.144;11.424;2022-10-22T14:44:42;19.20;99.90
12276;DHT22;6200;48.144;11.424;2022-10-22T14:47:07;19.20;99.90
12276;DHT22;6200;48.144;11.424;2022-10-22T14:49:33;19.20;99.90
12276;DHT22;6200;48.144;11.424;2022-10-22T14:51:59;19.10;99.90
12276;DHT22;6200;48.144;11.424;2022-10-22T14:54:25;19.10;99.90
12276;DHT22;6200;48.144;11.424;2022-10-22T14:56:50;19.10;99.90
12276;DHT22;6200;48.144;11.424;2022-10-22T14:59:16;19.00;99.90
12276;DHT22;6200;48.144;11.424;2022-10-22T15:01:41;18.90;99.90
12276;DHT22;6200;48.144;11.424;2022-10-22T15:04:08;18.80;99.90
12276;DHT22;6200;48.144;11.424;2022-10-22T15:06:33;18.80;99.90
12276;DHT22;6200;48.144;11.424;2022-10-22T15:08:59;18.80;99.90
12276;DHT22;6200;48.144;11.424;2022-10-22T15:11:24;18.70;99.90
12276;DHT22;6200;48.144;11.424;2022-10-22T15:13:51;18.60;99.90
12276;DHT22;6200;48.144;11.424;2022-10-22T15:16:16;18.60;99.90
12276;DHT22;6200;48.144;11.424;2022-10-22T15:18:42;18.50;99.90
12276;DHT22;6200;48.144;11.424;2022-10-22T15:21:14;18.40;99.90
12276;DHT22;6200;48.144;11.424;2022-10-22T15:23:40;18.30;99.90
12276;DHT22;6200;48.144;11.424;2022-10-22T15:26:08;18.20;99.90
12276;DHT22;6200;48.144;11.424;2022-10-22T15:28:35;18.20;99.90
12276;DHT22;6200;48.144;11.424;2022-10-22T15:31:01;18.10;99.90
12276;DHT22;6200;48.144;11.424;2022-10-22T15:33:27;18.00;99.90
12276;DHT22;6200;48.144;11.424;2022-10-22T15:35:54;18.00;99.90
12276;DHT22;6200;48.144;11.424;2022-10-22T15:38:20;17.90;99.90
12276;DHT22;6200;48.144;11.424;2022-10-22T15:40:46;17.80;99.90
12276;DHT22;6200;48.144;11.424;2022-10-22T15:43:12;17.70;99.90
12276;DHT22;6200;48.144;11.424;2022-10-22T15:45:38;17.60;99.90
12276;DHT22;6200;48.144;11.424;2022-10-22T15:48:03;17.60;99.90
12276;DHT22;6200;48.144;11.424;2022-10-22T15:50:29;17.50;99.90
12276;DHT22;6200;48.144;11.424;2022-10-22T15:52:55;17.40;99.90
12276;DHT22;6200;48.144;11.424;2022-10-22T15:55:21;17.30;99.90
12276;DHT22;6200;48.144;11.424;2022-10-22T15:57:46;17.30;99.90
12276;DHT22;6200;48.144;11.424;2022-10-22T16:00:19;17.20;99.90
12276;DHT22;6200;48.144;11.424;2022-10-22T16:02:44;17.10;99.90
12276;DHT22;6200;48.144;11.424;2022-10-22T16:05:10;17.00;99.90
12276;DHT22;6200;48.144;11.424;2022-10-22T16:07:36;16.90;99.90
12276;DHT22;6200;48.144;11.424;2022-10-22T16:10:01;16.80;99.90
12276;DHT22;6200;48.144;11.424;2022-10-22T16:12:27;16.70;99.90
12276;DHT22;6200;48.144;11.424;2022-10-22T16:14:52;16.60;99.90
12276;DHT22;6200;48.144;11.424;2022-10-22T16:17:18;16.50;99.90
12276;DHT22;6200;48.144;11.424;2022-10-22T16:19:43;16.40;99.90
12276;DHT22;6200;48.144;11.424;2022-10-22T16:22:09;16.40;99.90
12276;DHT22;6200;48.144;11.424;2022-10-22T16:24:36;16.40;99.90
12276;DHT22;6200;48.144;11.424;2022-10-22T16:27:04;16.30;99.90
12276;DHT22;6200;48.144;11.424;2022-10-22T16:29:30;16.20;99.90
12276;DHT22;6200;48.144;11.424;2022-10-22T16:31:56;16.10;99.90
12276;DHT22;6200;48.144;11.424;2022-10-22T16:34:22;15.90;99.90
12276;DHT22;6200;48.144;11.424;2022-10-22T16:36:47;16.00;99.90
12276;DHT22;6200;48.144;11.424;2022-10-22T16:39:13;16.00;99.90
12276;DHT22;6200;48.144;11.424;2022-10-22T16:41:39;15.90;99.90
12276;DHT22;6200;48.144;11.424;2022-10-22T16:44:06;15.80;99.90
12276;DHT22;6200;48.144;11.424;2022-10-22T16:46:32;15.70;99.90
12276;DHT22;6200;48.144;11.424;2022-10-22T16:48:58;15.60;99.90
12276;DHT22;6200;48.144;11.424;2022-10-22T16:51:25;15.60;99.90
12276;DHT22;6200;48.144;11.424;2022-10-22T16:53:53;15.50;99.90
12276;DHT22;6200;48.144;11.424;2022-10-22T16:56:19;15.40;99.90
12276;DHT22;6200;48.144;11.424;2022-10-22T16:58:48;15.30;99.90
12276;DHT22;6200;48.144;11.424;2022-10-22T17:01:18;15.30;99.90
12276;DHT22;6200;48.144;11.424;2022-10-22T17:03:44;15.20;99.90
12276;DHT22;6200;48.144;11.424;2022-10-22T17:06:10;15.10;99.90
12276;DHT22;6200;48.144;11.424;2022-10-22T17:08:37;15.00;99.90
12276;DHT22;6200;48.144;11.424;2022-10-22T17:13:32;14.90;99.90
12276;DHT22;6200;48.144;11.424;2022-10-22T17:16:06;14.90;99.90
12276;DHT22;6200;48.144;11.424;2022-10-22T17:18:32;14.90;99.90
12276;DHT22;6200;48.144;11.424;2022-10-22T17:20:58;14.80;99.90
12276;DHT22;6200;48.144;11.424;2022-10-22T17:23:27;14.80;99.90
12276;DHT22;6200;48.144;11.424;2022-10-22T17:26:00;14.70;99.90